createdAt,value
2022-09-23T00:02:24.750Z,65.49
2022-09-23T00:04:53.923Z,65.48
2022-09-23T00:07:21.721Z,65.21
2022-09-23T00:09:51.215Z,65.03
2022-09-23T00:12:18.998Z,65.15
2022-09-23T00:14:46.829Z,65.41
2022-09-23T00:17:14.654Z,65.33
2022-09-23T00:19:43.897Z,65.26
2022-09-23T00:22:13.827Z,65.14
2022-09-23T00:24:41.685Z,65.55
2022-09-23T00:27:09.798Z,64.70
2022-09-23T00:29:38.415Z,64.94
2022-09-23T00:32:06.230Z,64.99
2022-09-23T00:34:34.011Z,64.65
2022-09-23T00:37:01.763Z,64.84
2022-09-23T00:39:31.217Z,64.44
2022-09-23T00:41:59.020Z,64.70
2022-09-23T00:44:48.193Z,64.71
2022-09-23T00:47:29.580Z,64.17
2022-09-23T00:50:05.254Z,63.88
2022-09-23T00:52:33.565Z,64.04
2022-09-23T00:55:09.302Z,63.98
2022-09-23T00:57:42.730Z,63.78
2022-09-23T01:00:13.154Z,63.93
2022-09-23T01:02:41.059Z,63.59
2022-09-23T01:05:10.305Z,63.13
2022-09-23T01:07:38.181Z,62.46
2022-09-23T01:10:10.711Z,62.64
2022-09-23T01:13:02.910Z,62.62
2022-09-23T01:15:44.944Z,62.78
2022-09-23T01:18:31.124Z,62.67
2022-09-23T01:21:16.605Z,63.16
2022-09-23T01:24:43.855Z,63.14
2022-09-23T01:27:36.422Z,63.12
2022-09-23T01:30:40.790Z,62.97
2022-09-23T01:33:18.657Z,63.71
2022-09-23T01:36:07.147Z,63.11
2022-09-23T01:38:44.918Z,63.26
2022-09-23T01:41:31.350Z,62.94
2022-09-23T01:44:06.070Z,62.99
2022-09-23T01:46:47.350Z,63.21
2022-09-23T01:49:22.253Z,62.97
2022-09-23T01:51:59.335Z,62.87
2022-09-23T01:54:38.700Z,63.08
2022-09-23T01:57:16.141Z,62.90
2022-09-23T01:59:52.540Z,63.15
2022-09-23T02:02:29.288Z,63.12
2022-09-23T02:05:04.183Z,63.35
2022-09-23T02:07:40.634Z,63.12
2022-09-23T02:10:16.691Z,63.22
2022-09-23T02:12:49.826Z,63.54
2022-09-23T02:15:24.730Z,63.62
2022-09-23T02:18:14.453Z,63.86
2022-09-23T02:20:44.858Z,63.83
2022-09-23T02:23:19.336Z,63.51
2022-09-23T02:26:02.661Z,63.60
2022-09-23T02:28:40.141Z,63.53
2022-09-23T02:31:16.305Z,63.73
2022-09-23T02:34:00.043Z,63.46
2022-09-23T02:36:32.519Z,63.57
2022-09-23T02:39:08.509Z,63.30
2022-09-23T02:41:53.453Z,63.12
2022-09-23T02:44:23.518Z,63.62
2022-09-23T02:46:53.083Z,63.57
2022-09-23T02:49:26.416Z,63.62
2022-09-23T02:51:54.981Z,64.03
2022-09-23T02:54:27.220Z,64.29
2022-09-23T02:56:56.449Z,63.54
2022-09-23T02:59:24.645Z,64.18
2022-09-23T03:02:14.110Z,63.75
2022-09-23T03:04:54.789Z,63.53
2022-09-23T03:07:33.507Z,63.32
2022-09-23T03:10:15.010Z,63.61
2022-09-23T03:12:59.450Z,63.39
2022-09-23T03:15:38.628Z,63.06
2022-09-23T03:18:15.759Z,63.24
2022-09-23T03:20:53.437Z,62.93
2022-09-23T03:23:28.893Z,63.11
2022-09-23T03:26:02.509Z,63.13
2022-09-23T03:28:31.509Z,62.95
2022-09-23T03:31:00.419Z,63.02
2022-09-23T03:33:29.050Z,62.80
2022-09-23T03:36:25.366Z,62.87
2022-09-23T03:39:04.793Z,62.67
2022-09-23T03:41:40.230Z,62.83
2022-09-23T03:44:09.201Z,62.74
2022-09-23T03:46:37.636Z,63.08
2022-09-23T03:49:15.653Z,63.04
2022-09-23T03:51:44.998Z,63.06
2022-09-23T03:54:12.787Z,64.00
2022-09-23T03:56:40.597Z,63.76
2022-09-23T03:59:08.418Z,63.43
2022-09-23T04:01:36.321Z,63.64
2022-09-23T04:04:04.128Z,63.86
2022-09-23T04:06:31.903Z,64.33
2022-09-23T04:09:01.925Z,64.98
2022-09-23T04:11:29.786Z,65.05
2022-09-23T04:13:58.027Z,64.96
2022-09-23T04:16:26.036Z,64.97
2022-09-23T04:18:53.873Z,65.26
2022-09-23T04:21:22.046Z,65.87
2022-09-23T04:23:49.907Z,65.69
2022-09-23T04:26:19.094Z,66.01
2022-09-23T04:28:46.869Z,65.78
2022-09-23T04:31:14.803Z,66.04
2022-09-23T04:33:42.881Z,65.84
2022-09-23T04:36:10.983Z,65.82
2022-09-23T04:38:38.750Z,65.97
2022-09-23T04:41:08.641Z,66.40
2022-09-23T04:43:37.916Z,66.36
2022-09-23T04:46:09.023Z,66.44
2022-09-23T04:48:38.376Z,66.39
2022-09-23T04:51:10.641Z,66.15
2022-09-23T04:53:41.422Z,66.39
2022-09-23T04:56:12.907Z,66.57
2022-09-23T04:58:42.857Z,66.42
2022-09-23T05:01:13.605Z,66.33
2022-09-23T05:03:43.039Z,66.16
2022-09-23T05:06:13.780Z,66.05
2022-09-23T05:08:47.818Z,65.52
2022-09-23T05:11:16.309Z,65.77
2022-09-23T05:13:47.032Z,66.27
2022-09-23T05:16:15.167Z,66.02
2022-09-23T05:18:45.085Z,66.10
2022-09-23T05:21:16.167Z,65.83
2022-09-23T05:23:48.612Z,65.64
2022-09-23T05:26:16.704Z,65.96
2022-09-23T05:28:45.890Z,66.64
2022-09-23T05:31:20.044Z,66.35
2022-09-23T05:33:52.822Z,66.28
2022-09-23T05:36:22.070Z,65.76
2022-09-23T05:38:51.228Z,65.71
2022-09-23T05:41:23.030Z,66.32
2022-09-23T05:43:54.487Z,66.07
2022-09-23T05:46:24.878Z,66.54
2022-09-23T05:48:52.744Z,66.10
2022-09-23T05:51:30.126Z,66.03
2022-09-23T05:54:02.700Z,66.20
2022-09-23T05:56:31.887Z,65.87
2022-09-23T05:59:02.344Z,66.14
2022-09-23T06:01:33.862Z,65.75
2022-09-23T06:04:08.673Z,65.27
2022-09-23T06:06:39.159Z,65.12
2022-09-23T06:09:11.330Z,65.39
2022-09-23T06:11:39.521Z,64.82
2022-09-23T06:14:12.983Z,64.10
2022-09-23T06:16:41.027Z,63.73
2022-09-23T06:19:09.785Z,63.32
2022-09-23T06:21:40.511Z,63.43
2022-09-23T06:24:11.688Z,63.48
2022-09-23T06:26:42.659Z,63.02
2022-09-23T06:29:12.475Z,62.42
2022-09-23T06:31:42.172Z,61.47
2022-09-23T06:34:13.743Z,61.41
2022-09-23T06:36:44.955Z,61.40
2022-09-23T06:39:14.835Z,60.99
2022-09-23T06:41:47.455Z,61.65
2022-09-23T06:44:17.192Z,60.87
2022-09-23T06:46:45.442Z,59.97
2022-09-23T06:49:13.472Z,59.21
2022-09-23T06:51:42.718Z,58.68
2022-09-23T06:54:10.919Z,58.39
2022-09-23T06:56:40.670Z,57.62
2022-09-23T06:59:12.906Z,57.16
2022-09-23T07:01:42.530Z,56.12
2022-09-23T07:04:10.871Z,56.26
2022-09-23T07:06:40.273Z,55.51
2022-09-23T07:09:08.834Z,54.21
2022-09-23T07:11:36.978Z,53.14
2022-09-23T07:14:07.828Z,53.33
2022-09-23T07:16:35.609Z,52.18
2022-09-23T07:19:05.041Z,52.02
2022-09-23T07:21:33.632Z,51.09
2022-09-23T07:24:02.249Z,50.59
2022-09-23T07:26:30.939Z,50.05
2022-09-23T07:29:04.695Z,49.00
2022-09-23T07:31:39.086Z,48.12
2022-09-23T07:34:11.429Z,48.55
2022-09-23T07:36:40.976Z,48.18
2022-09-23T07:39:12.386Z,46.92
2022-09-23T07:41:44.591Z,47.21
2022-09-23T07:44:12.953Z,46.32
2022-09-23T07:46:41.384Z,46.21
2022-09-23T07:49:10.897Z,45.40
2022-09-23T07:51:42.450Z,45.57
2022-09-23T07:54:15.673Z,44.95
2022-09-23T07:56:44.339Z,44.91
2022-09-23T07:59:17.120Z,45.01
2022-09-23T08:01:48.410Z,44.36
2022-09-23T08:04:20.837Z,43.15
2022-09-23T08:06:51.514Z,42.70
2022-09-23T08:09:23.309Z,43.58
2022-09-23T08:11:52.065Z,43.66
2022-09-23T08:14:22.164Z,45.60
2022-09-23T08:16:51.776Z,44.97
2022-09-23T08:19:21.135Z,45.08
2022-09-23T08:21:52.041Z,44.64
2022-09-23T08:24:23.608Z,43.94
2022-09-23T08:26:53.300Z,43.51
2022-09-23T08:29:24.343Z,43.60
2022-09-23T08:31:53.395Z,44.41
2022-09-23T08:34:23.733Z,42.06
2022-09-23T08:36:52.306Z,42.75
2022-09-23T08:39:21.344Z,43.14
2022-09-23T08:42:14.561Z,42.69
2022-09-23T08:44:54.201Z,42.54
2022-09-23T08:47:27.862Z,42.37
2022-09-23T08:50:08.790Z,43.11
2022-09-23T08:52:48.897Z,43.35
2022-09-23T08:55:18.523Z,41.47
2022-09-23T08:58:24.376Z,43.58
2022-09-23T09:01:07.863Z,43.59
2022-09-23T09:03:45.028Z,42.40
2022-09-23T09:06:21.098Z,43.34
2022-09-23T09:08:58.793Z,42.75
2022-09-23T09:11:35.835Z,43.54
2022-09-23T09:14:17.990Z,44.85
2022-09-23T09:17:01.162Z,44.75
2022-09-23T09:19:52.488Z,44.53
2022-09-23T09:25:43.002Z,43.49
2022-09-23T09:28:19.866Z,42.64
2022-09-23T09:30:54.118Z,41.30
2022-09-23T09:33:32.207Z,41.52
2022-09-23T09:36:19.019Z,39.75
2022-09-23T09:38:48.768Z,40.81
2022-09-23T09:41:21.239Z,40.35
2022-09-23T09:43:57.613Z,39.22
2022-09-23T09:46:52.256Z,37.95
2022-09-23T09:49:38.130Z,39.75
2022-09-23T09:52:22.440Z,37.78
2022-09-23T09:54:53.191Z,39.25
2022-09-23T09:57:35.044Z,38.13
2022-09-23T10:00:46.045Z,39.18
2022-09-23T10:03:41.293Z,38.47
2022-09-23T10:06:23.535Z,37.20
2022-09-23T10:09:13.580Z,36.87
2022-09-23T10:12:02.868Z,36.80
2022-09-23T10:14:31.420Z,38.49
2022-09-23T10:17:06.006Z,36.81
2022-09-23T10:19:38.613Z,37.41
2022-09-23T10:22:19.805Z,37.90
2022-09-23T10:24:50.983Z,37.40
2022-09-23T10:27:31.378Z,37.24
2022-09-23T10:30:03.472Z,37.12
2022-09-23T10:32:37.214Z,38.43
2022-09-23T10:35:16.320Z,37.58
2022-09-23T10:37:48.331Z,37.33
2022-09-23T10:40:43.808Z,37.74
2022-09-23T10:43:52.447Z,37.69
2022-09-23T10:46:45.823Z,37.66
2022-09-23T10:50:16.541Z,36.91
2022-09-23T10:53:04.146Z,39.14
2022-09-23T10:55:49.499Z,38.21
2022-09-23T10:59:02.320Z,39.57
2022-09-23T11:01:43.551Z,39.34
2022-09-23T11:04:39.767Z,38.22
2022-09-23T11:07:23.706Z,38.32
2022-09-23T11:10:42.256Z,37.84
2022-09-23T11:13:30.995Z,37.98
2022-09-23T11:16:15.104Z,37.65
2022-09-23T11:19:04.727Z,38.20
2022-09-23T11:22:00.997Z,36.58
2022-09-23T11:25:01.230Z,37.37
2022-09-23T11:27:58.365Z,37.55
2022-09-23T11:30:43.193Z,36.07
2022-09-23T11:33:38.429Z,35.45
2022-09-23T11:36:16.142Z,35.53
2022-09-23T11:38:49.922Z,36.00
2022-09-23T11:41:23.474Z,35.59
2022-09-23T11:44:01.145Z,34.15
2022-09-23T11:46:40.409Z,36.34
2022-09-23T11:49:17.154Z,33.57
2022-09-23T11:52:05.164Z,34.67
2022-09-23T11:54:43.093Z,35.42
2022-09-23T11:57:24.623Z,35.23
2022-09-23T11:59:59.850Z,34.08
2022-09-23T12:02:44.758Z,35.74
2022-09-23T12:05:22.113Z,35.12
2022-09-23T12:07:57.623Z,33.33
2022-09-23T12:10:41.732Z,34.36
2022-09-23T12:13:19.620Z,35.30
2022-09-23T12:16:13.650Z,33.70
2022-09-23T12:19:11.069Z,34.37
2022-09-23T12:22:05.760Z,34.78
2022-09-23T12:24:57.769Z,34.39
2022-09-23T12:27:36.806Z,34.82
2022-09-23T12:30:14.214Z,34.74
2022-09-23T12:32:43.233Z,36.33
2022-09-23T12:35:25.402Z,35.66
2022-09-23T12:37:53.805Z,37.04
2022-09-23T12:40:31.374Z,35.14
2022-09-23T12:43:01.231Z,35.67
2022-09-23T12:45:40.213Z,36.45
2022-09-23T12:48:43.725Z,36.81
2022-09-23T12:51:21.604Z,35.75
2022-09-23T12:54:19.270Z,34.42
2022-09-23T12:57:09.257Z,36.13
2022-09-23T12:59:59.345Z,35.19
2022-09-23T13:02:34.730Z,34.50
2022-09-23T13:05:40.396Z,35.73
2022-09-23T13:08:16.732Z,35.63
2022-09-23T13:10:49.362Z,36.12
2022-09-23T13:13:26.957Z,35.90
2022-09-23T13:15:55.140Z,36.17
2022-09-23T13:18:40.309Z,35.42
2022-09-23T13:21:18.737Z,35.51
2022-09-23T13:24:18.716Z,35.63
2022-09-23T13:26:50.851Z,36.00
2022-09-23T13:29:25.939Z,35.78
2022-09-23T13:31:57.539Z,35.30
2022-09-23T13:34:33.049Z,34.98
2022-09-23T13:37:22.172Z,36.25
2022-09-23T13:39:51.957Z,35.22
2022-09-23T13:42:27.296Z,36.56
2022-09-23T13:44:58.944Z,37.05
2022-09-23T13:47:30.947Z,34.05
2022-09-23T13:49:59.169Z,35.39
2022-09-23T13:52:31.681Z,34.63
2022-09-23T13:55:00.835Z,35.14
2022-09-23T13:57:33.742Z,34.03
2022-09-23T14:00:16.320Z,33.86
2022-09-23T14:02:46.764Z,33.63
2022-09-23T14:05:24.541Z,33.85
2022-09-23T14:07:55.033Z,33.14
2022-09-23T14:10:27.539Z,34.59
2022-09-23T14:12:56.803Z,35.49
2022-09-23T14:15:25.472Z,35.13
2022-09-23T14:18:01.539Z,35.95
2022-09-23T14:20:29.377Z,36.01
2022-09-23T14:23:06.906Z,35.88
2022-09-23T14:25:36.687Z,34.74
2022-09-23T14:28:05.190Z,35.86
2022-09-23T14:30:33.386Z,35.29
2022-09-23T14:33:05.538Z,34.86
2022-09-23T14:35:43.250Z,35.01
2022-09-23T14:38:29.776Z,35.87
2022-09-23T14:41:29.414Z,35.40
2022-09-23T14:44:00.652Z,35.99
2022-09-23T14:46:32.958Z,35.92
2022-09-23T14:49:07.437Z,35.21
2022-09-23T14:51:47.875Z,35.27
2022-09-23T14:54:37.000Z,35.35
2022-09-23T14:57:30.404Z,34.52
2022-09-23T15:00:02.337Z,35.32
2022-09-23T15:02:36.223Z,35.64
2022-09-23T15:05:19.622Z,35.24
2022-09-23T15:07:51.499Z,35.97
2022-09-23T15:10:25.376Z,34.47
2022-09-23T15:13:04.147Z,35.00
2022-09-23T15:15:32.461Z,34.55
2022-09-23T15:18:06.259Z,36.22
2022-09-23T15:20:35.429Z,34.95
2022-09-23T15:23:03.788Z,35.88
2022-09-23T15:25:35.391Z,36.29
2022-09-23T15:28:19.429Z,36.11
2022-09-23T15:30:47.244Z,35.85
2022-09-23T15:33:15.154Z,36.19
2022-09-23T15:35:47.111Z,35.81
2022-09-23T15:38:15.025Z,37.21
2022-09-23T15:40:42.937Z,36.31
2022-09-23T15:43:20.216Z,36.94
2022-09-23T15:45:53.007Z,37.30
2022-09-23T15:48:25.786Z,37.27
2022-09-23T15:50:55.265Z,37.04
2022-09-23T15:53:27.086Z,37.51
2022-09-23T15:55:54.981Z,37.76
2022-09-23T15:58:27.657Z,38.30
2022-09-23T16:00:57.458Z,37.23
2022-09-23T16:03:28.500Z,37.46
2022-09-23T16:06:00.459Z,37.72
2022-09-23T16:08:28.875Z,38.63
2022-09-23T16:10:56.753Z,38.18
2022-09-23T16:13:26.020Z,38.52
2022-09-23T16:15:54.063Z,39.09
2022-09-23T16:18:22.152Z,38.53
2022-09-23T16:20:50.903Z,39.21
2022-09-23T16:23:34.047Z,39.98
2022-09-23T16:26:07.189Z,39.52
2022-09-23T16:28:36.521Z,40.75
2022-09-23T16:31:04.751Z,41.26
2022-09-23T16:33:32.624Z,40.20
2022-09-23T16:36:00.884Z,41.00
2022-09-23T16:38:29.412Z,40.60
2022-09-23T16:41:00.141Z,41.49
2022-09-23T16:43:39.501Z,41.25
2022-09-23T16:46:12.090Z,41.51
2022-09-23T16:48:40.778Z,42.56
2022-09-23T16:51:13.114Z,42.70
2022-09-23T16:53:42.343Z,43.31
2022-09-23T16:56:12.876Z,43.32
2022-09-23T16:58:40.937Z,42.78
2022-09-23T17:01:36.929Z,43.42
2022-09-23T17:04:05.093Z,43.67
2022-09-23T17:06:33.091Z,43.56
2022-09-23T17:09:01.185Z,43.74
2022-09-23T17:11:33.425Z,44.20
2022-09-23T17:14:05.537Z,44.64
2022-09-23T17:16:35.073Z,44.44
2022-09-23T17:19:08.070Z,44.64
2022-09-23T17:21:36.647Z,44.73
2022-09-23T17:24:05.869Z,45.40
2022-09-23T17:26:34.166Z,45.45
2022-09-23T17:29:05.520Z,45.73
2022-09-23T17:31:34.892Z,45.83
2022-09-23T17:34:02.873Z,46.15
2022-09-23T17:36:30.659Z,45.95
2022-09-23T17:38:58.413Z,46.25
2022-09-23T17:41:27.382Z,46.25
2022-09-23T17:44:00.341Z,46.51
2022-09-23T17:46:30.021Z,45.84
2022-09-23T17:48:59.241Z,46.58
2022-09-23T17:51:27.509Z,47.72
2022-09-23T17:53:55.865Z,46.74
2022-09-23T17:56:26.225Z,47.18
2022-09-23T17:58:54.563Z,47.11
2022-09-23T18:01:24.955Z,48.24
2022-09-23T18:04:05.556Z,48.47
2022-09-23T18:06:36.969Z,49.53
2022-09-23T18:09:08.465Z,49.98
2022-09-23T18:11:40.558Z,51.37
2022-09-23T18:14:15.475Z,52.56
2022-09-23T18:16:48.345Z,53.43
2022-09-23T18:19:22.548Z,53.84
2022-09-23T18:21:54.358Z,53.86
2022-09-23T18:24:38.738Z,54.94
2022-09-23T18:27:07.606Z,53.67
2022-09-23T18:29:38.045Z,54.79
2022-09-23T18:32:07.591Z,54.58
2022-09-23T18:34:39.588Z,54.66
2022-09-23T18:37:15.339Z,55.37
2022-09-23T18:39:44.912Z,54.52
2022-09-23T18:42:13.014Z,53.74
2022-09-23T18:44:42.205Z,53.58
2022-09-23T18:47:30.025Z,54.07
2022-09-23T18:50:17.691Z,53.68
2022-09-23T18:52:45.530Z,53.97
2022-09-23T18:55:13.539Z,53.84
2022-09-23T18:57:41.755Z,53.53
2022-09-23T19:00:11.596Z,54.18
2022-09-23T19:02:39.344Z,54.22
2022-09-23T19:05:09.397Z,55.89
2022-09-23T19:07:37.665Z,55.61
2022-09-23T19:10:08.091Z,54.39
2022-09-23T19:12:37.483Z,54.65
2022-09-23T19:15:06.498Z,54.94
2022-09-23T19:17:36.924Z,55.35
2022-09-23T19:20:06.318Z,55.61
2022-09-23T19:22:38.159Z,55.97
2022-09-23T19:25:08.753Z,55.99
2022-09-23T19:27:37.018Z,55.69
2022-09-23T19:30:08.230Z,55.90
2022-09-23T19:32:36.153Z,56.25
2022-09-23T19:35:04.685Z,56.62
2022-09-23T19:37:33.359Z,56.69
2022-09-23T19:40:02.586Z,56.64
2022-09-23T19:42:30.694Z,56.34
2022-09-23T19:44:58.490Z,56.26
2022-09-23T19:47:26.278Z,56.37
2022-09-23T19:49:54.190Z,57.12
2022-09-23T19:52:21.959Z,56.60
2022-09-23T19:54:52.866Z,55.92
2022-09-23T19:57:22.089Z,55.76
2022-09-23T19:59:51.042Z,55.77
2022-09-23T20:02:18.842Z,56.00
2022-09-23T20:04:46.686Z,55.87
2022-09-23T20:07:14.920Z,55.96
2022-09-23T20:09:43.326Z,56.04
2022-09-23T20:12:12.810Z,55.69
2022-09-23T20:14:41.944Z,55.96
2022-09-23T20:17:10.145Z,56.45
2022-09-23T20:19:38.018Z,56.47
2022-09-23T20:22:25.964Z,56.93
2022-09-23T20:24:56.208Z,57.17
2022-09-23T20:27:25.382Z,56.78
2022-09-23T20:29:55.706Z,57.32
2022-09-23T20:32:25.487Z,57.26
2022-09-23T20:34:54.502Z,57.04
2022-09-23T20:37:24.694Z,57.77
2022-09-23T20:39:53.504Z,58.89
2022-09-23T20:42:21.758Z,60.34
2022-09-23T20:44:50.919Z,60.19
2022-09-23T20:47:24.398Z,60.17
2022-09-23T20:49:58.691Z,59.05
2022-09-23T20:52:27.527Z,60.49
2022-09-23T20:54:55.499Z,60.21
2022-09-23T20:57:23.368Z,58.15
2022-09-23T20:59:51.779Z,58.96
2022-09-23T21:02:21.566Z,58.96
2022-09-23T21:04:49.559Z,60.07
2022-09-23T21:07:17.790Z,59.82
2022-09-23T21:09:45.568Z,59.88
2022-09-23T21:12:13.366Z,59.69
2022-09-23T21:14:41.192Z,57.91
2022-09-23T21:17:09.219Z,58.69
2022-09-23T21:19:41.479Z,59.39
2022-09-23T21:22:09.560Z,59.37
2022-09-23T21:25:16.053Z,59.47
2022-09-23T21:27:27.473Z,61.01
2022-09-23T21:29:55.308Z,60.15
2022-09-23T21:32:23.097Z,60.90
2022-09-23T21:34:52.485Z,61.04
2022-09-23T21:37:21.559Z,59.81
2022-09-23T21:40:08.505Z,60.86
2022-09-23T21:42:36.883Z,61.09
2022-09-23T21:45:06.277Z,61.75
2022-09-23T21:47:34.128Z,61.33
2022-09-23T21:50:04.116Z,62.12
2022-09-23T21:52:31.959Z,62.74
2022-09-23T21:54:59.972Z,62.61
2022-09-23T21:57:30.403Z,62.57
2022-09-23T21:59:58.437Z,62.60
2022-09-23T22:02:28.416Z,62.46
2022-09-23T22:04:56.689Z,61.56
2022-09-23T22:07:26.537Z,61.56
2022-09-23T22:09:54.568Z,62.35
2022-09-23T22:12:24.003Z,61.83
2022-09-23T22:14:52.130Z,60.29
2022-09-23T22:17:21.078Z,61.17
2022-09-23T22:19:49.189Z,61.25
2022-09-23T22:22:19.623Z,61.07
2022-09-23T22:24:49.171Z,60.85
2022-09-23T22:27:19.723Z,60.39
2022-09-23T22:30:07.839Z,60.90
2022-09-23T22:32:41.728Z,61.12
2022-09-23T22:35:13.350Z,60.68
2022-09-23T22:37:41.525Z,60.08
2022-09-23T22:40:14.342Z,60.75
2022-09-23T22:42:43.720Z,59.99
2022-09-23T22:45:12.917Z,60.43
2022-09-23T22:47:45.813Z,60.75
2022-09-23T22:50:14.613Z,60.37
2022-09-23T22:52:43.619Z,59.88
2022-09-23T22:55:13.557Z,60.37
2022-09-23T22:57:42.959Z,60.14
2022-09-23T23:00:13.879Z,60.47
2022-09-23T23:02:42.297Z,60.64
2022-09-23T23:05:11.100Z,60.23
2022-09-23T23:07:39.374Z,60.72
2022-09-23T23:10:12.608Z,60.44
2022-09-23T23:12:41.468Z,60.50
2022-09-23T23:15:12.553Z,59.92
2022-09-23T23:17:43.260Z,60.41
2022-09-23T23:20:12.005Z,59.43
2022-09-23T23:22:39.856Z,59.49
2022-09-23T23:25:09.912Z,59.81
2022-09-23T23:27:39.192Z,59.89
2022-09-23T23:30:11.248Z,59.90
2022-09-23T23:32:39.309Z,59.55
2022-09-23T23:35:09.463Z,60.62
2022-09-23T23:37:39.159Z,60.50
2022-09-23T23:40:08.704Z,61.18
2022-09-23T23:42:36.897Z,60.84
2022-09-23T23:45:08.587Z,61.21
2022-09-23T23:47:36.811Z,60.63
2022-09-23T23:50:05.561Z,60.75
2022-09-23T23:52:33.507Z,60.72
2022-09-23T23:55:01.592Z,60.45
2022-09-23T23:57:30.466Z,60.17
2022-09-23T23:59:58.649Z,60.60
